Time;durP1;ratioP1;P1;durP2;ratioP2;P2;SDS_P1;SDS_P2;PMS_P1;PMS_P2;Temp;Humidity;BMP_temperature;BMP_pressure;BME280_temperature;BME280_humidity;BME280_pressure;Samples;Min_cycle;Max_cycle;Signal;HPM_P1;HPM_P2
2023/04/26 00:01:17;;;;;;;9.17;4.57;;;6.00;99.90;;;;;;5025942;28;20202;-67
2023/04/26 00:03:43;;;;;;;8.80;4.07;;;6.00;99.90;;;;;;5025710;28;20572;-67
2023/04/26 00:06:09;;;;;;;7.30;3.03;;;6.10;99.90;;;;;;5020306;28;20285;-67
2023/04/26 00:08:37;;;;;;;6.47;3.40;;;6.10;99.90;;;;;;5018987;28;20183;-67
2023/04/26 00:11:03;;;;;;;7.30;3.67;;;6.10;99.90;;;;;;5017416;28;20437;-67
2023/04/26 00:13:29;;;;;;;10.43;3.77;;;6.10;99.90;;;;;;5009372;28;20435;-66
2023/04/26 00:15:54;;;;;;;6.60;3.67;;;6.10;99.90;;;;;;5023818;28;20544;-67
2023/04/26 00:18:20;;;;;;;10.73;4.20;;;6.00;99.90;;;;;;5015980;28;20293;-67
2023/04/26 00:20:46;;;;;;;6.90;2.97;;;6.00;99.90;;;;;;5023670;28;20176;-67
2023/04/26 00:23:12;;;;;;;7.20;3.73;;;6.00;99.90;;;;;;5014142;28;20552;-67
2023/04/26 00:25:37;;;;;;;4.73;2.83;;;6.00;99.90;;;;;;5007615;28;20189;-67
2023/04/26 00:28:03;;;;;;;9.23;3.60;;;6.00;99.90;;;;;;5007615;28;20535;-67
2023/04/26 00:30:29;;;;;;;4.00;3.03;;;6.00;99.90;;;;;;5017967;28;20183;-67
2023/04/26 00:32:55;;;;;;;10.87;3.43;;;6.00;99.90;;;;;;5012018;28;20241;-67
2023/04/26 00:35:20;;;;;;;11.13;4.97;;;6.00;99.90;;;;;;5031964;28;20914;-67
2023/04/26 00:37:46;;;;;;;5.60;3.27;;;6.00;99.90;;;;;;5018760;28;20207;-67
2023/04/26 00:40:12;;;;;;;6.27;4.00;;;6.00;99.90;;;;;;4999676;28;20220;-67
2023/04/26 00:42:39;;;;;;;5.80;3.67;;;6.00;99.90;;;;;;5010830;28;20179;-67
2023/04/26 00:45:06;;;;;;;10.13;4.53;;;6.00;99.90;;;;;;5009190;28;20537;-67
2023/04/26 00:47:32;;;;;;;8.77;3.60;;;6.00;99.90;;;;;;5012444;28;20450;-67
2023/04/26 00:49:59;;;;;;;10.63;4.03;;;6.00;99.90;;;;;;5006437;28;20473;-67
2023/04/26 00:52:26;;;;;;;13.60;3.80;;;5.90;99.90;;;;;;5010726;28;20211;-67
2023/04/26 00:54:53;;;;;;;7.73;4.77;;;5.90;99.90;;;;;;5012025;28;20430;-67
2023/04/26 00:57:20;;;;;;;5.53;3.37;;;5.90;99.90;;;;;;5015596;28;20500;-67
2023/04/26 00:59:45;;;;;;;8.07;3.67;;;5.90;99.90;;;;;;5020122;28;20421;-67
2023/04/26 01:02:11;;;;;;;9.63;2.73;;;5.90;99.90;;;;;;5017839;28;20422;-67
2023/04/26 01:04:39;;;;;;;7.17;3.53;;;5.90;99.90;;;;;;5028537;28;20190;-67
2023/04/26 01:07:05;;;;;;;5.33;3.53;;;5.90;99.90;;;;;;5006534;28;20781;-67
2023/04/26 01:09:31;;;;;;;7.43;3.13;;;5.90;99.90;;;;;;5009255;28;20465;-67
2023/04/26 01:11:59;;;;;;;6.17;4.10;;;5.90;99.90;;;;;;5004105;28;20198;-67
2023/04/26 01:14:25;;;;;;;10.93;3.53;;;5.90;99.90;;;;;;5004203;28;20429;-67
2023/04/26 01:16:51;;;;;;;11.23;3.47;;;5.80;99.90;;;;;;5008090;28;20473;-67
2023/04/26 01:19:17;;;;;;;10.37;3.13;;;5.80;99.90;;;;;;5007706;28;20513;-67
2023/04/26 01:21:43;;;;;;;7.57;3.30;;;5.80;99.90;;;;;;5011257;28;20191;-67
2023/04/26 01:24:12;;;;;;;14.50;3.93;;;5.80;99.90;;;;;;5011672;28;20415;-67
2023/04/26 01:26:45;;;;;;;8.20;3.33;;;5.80;99.90;;;;;;5011771;28;20449;-67
2023/04/26 01:29:20;;;;;;;7.73;3.47;;;5.70;99.90;;;;;;5011187;28;20433;-67
2023/04/26 01:31:46;;;;;;;4.10;2.70;;;5.60;99.90;;;;;;5006320;28;20480;-67
2023/04/26 01:34:12;;;;;;;5.80;3.70;;;5.60;99.90;;;;;;4991400;28;20418;-67
2023/04/26 01:36:38;;;;;;;6.50;3.63;;;5.60;99.90;;;;;;4996330;28;20508;-67
2023/04/26 01:39:04;;;;;;;6.63;2.53;;;5.60;99.90;;;;;;4999127;28;20816;-67
2023/04/26 01:41:30;;;;;;;5.57;2.40;;;5.60;99.90;;;;;;5009651;28;20187;-67
2023/04/26 01:43:55;;;;;;;7.93;4.53;;;5.60;99.90;;;;;;5013257;28;20422;-67
2023/04/26 01:46:21;;;;;;;7.40;3.70;;;5.60;99.90;;;;;;5002952;28;20261;-67
2023/04/26 01:48:47;;;;;;;6.77;3.67;;;5.60;99.90;;;;;;5000862;28;20586;-67
2023/04/26 01:51:13;;;;;;;6.80;3.40;;;5.50;99.90;;;;;;5006578;28;20948;-67
2023/04/26 01:53:39;;;;;;;3.80;2.93;;;5.50;99.90;;;;;;4993566;28;20176;-67
2023/04/26 01:56:04;;;;;;;6.10;3.60;;;5.50;99.90;;;;;;4991512;28;20414;-67
2023/04/26 01:58:30;;;;;;;7.60;2.60;;;5.50;99.90;;;;;;5002697;28;20198;-67
2023/04/26 02:01:04;;;;;;;7.73;3.67;;;5.40;99.90;;;;;;5013437;28;20472;-67
2023/04/26 02:03:30;;;;;;;8.80;3.23;;;5.40;99.90;;;;;;5017555;28;20175;-67
2023/04/26 02:05:55;;;;;;;11.10;3.40;;;5.40;99.90;;;;;;5011876;28;20411;-67
2023/04/26 02:08:21;;;;;;;7.70;3.63;;;5.30;99.90;;;;;;4998190;28;20183;-67
2023/04/26 02:10:47;;;;;;;9.30;3.57;;;5.30;99.90;;;;;;5011363;28;20215;-67
2023/04/26 02:13:13;;;;;;;7.43;3.50;;;5.30;99.90;;;;;;5001276;28;20655;-67
2023/04/26 02:15:39;;;;;;;4.77;2.50;;;5.20;99.90;;;;;;5004490;28;20175;-67
2023/04/26 02:18:05;;;;;;;6.00;3.37;;;5.20;99.90;;;;;;5017722;28;20469;-67
2023/04/26 02:20:31;;;;;;;7.07;3.37;;;5.20;99.90;;;;;;4998363;28;20473;-67
2023/04/26 02:22:56;;;;;;;8.37;4.20;;;5.20;99.90;;;;;;5009534;28;20266;-67
2023/04/26 02:25:22;;;;;;;12.90;3.10;;;5.20;99.90;;;;;;4998930;28;20640;-67
2023/04/26 02:27:49;;;;;;;9.63;4.27;;;5.20;99.90;;;;;;4997427;28;20184;-67
2023/04/26 02:30:15;;;;;;;11.83;3.50;;;5.20;99.90;;;;;;5016576;28;20436;-67
2023/04/26 02:32:40;;;;;;;6.43;3.33;;;5.10;99.90;;;;;;5004972;28;20187;-67
2023/04/26 02:35:07;;;;;;;10.70;4.30;;;5.10;99.90;;;;;;5016439;28;20190;-67
2023/04/26 02:37:33;;;;;;;6.93;3.70;;;5.10;99.90;;;;;;5004975;28;20212;-67
2023/04/26 02:39:58;;;;;;;7.47;3.77;;;5.10;99.90;;;;;;5016281;28;20548;-67
2023/04/26 02:42:24;;;;;;;8.97;3.80;;;5.10;99.90;;;;;;5016821;28;20505;-67
2023/04/26 02:44:50;;;;;;;5.63;3.30;;;5.10;99.90;;;;;;5019178;28;20588;-67
2023/04/26 02:47:16;;;;;;;7.60;3.53;;;5.10;99.90;;;;;;5017564;28;20440;-67
2023/04/26 02:49:41;;;;;;;8.53;3.70;;;5.10;99.90;;;;;;5007239;28;20183;-67
2023/04/26 02:52:07;;;;;;;11.33;4.13;;;5.10;99.90;;;;;;5014484;28;20201;-67
2023/04/26 02:54:33;;;;;;;5.80;3.00;;;5.10;99.90;;;;;;4998847;28;20535;-67
2023/04/26 02:56:58;;;;;;;6.07;3.23;;;5.10;99.90;;;;;;4997720;28;20203;-67
2023/04/26 02:59:24;;;;;;;3.53;2.60;;;5.10;99.90;;;;;;4979975;28;20190;-67
2023/04/26 03:01:50;;;;;;;6.13;3.30;;;5.00;99.90;;;;;;5011905;28;20265;-67
2023/04/26 03:04:16;;;;;;;4.33;2.27;;;5.00;99.90;;;;;;5003585;28;20210;-67
2023/04/26 03:06:42;;;;;;;2.77;2.00;;;5.00;99.90;;;;;;5005190;28;20191;-67
2023/04/26 03:09:07;;;;;;;4.60;2.80;;;5.00;99.90;;;;;;5010200;28;20426;-67
2023/04/26 03:11:33;;;;;;;6.00;2.63;;;4.90;99.90;;;;;;5015466;28;20194;-67
2023/04/26 03:13:59;;;;;;;6.60;3.90;;;4.90;99.90;;;;;;5009055;28;20233;-67
2023/04/26 03:16:26;;;;;;;10.87;3.13;;;4.80;99.90;;;;;;5014129;28;20187;-67
2023/04/26 03:18:53;;;;;;;6.37;3.40;;;4.80;99.90;;;;;;4994808;28;20191;-67
2023/04/26 03:21:18;;;;;;;5.57;3.40;;;4.80;99.90;;;;;;5006250;28;20422;-67
2023/04/26 03:23:45;;;;;;;6.33;2.90;;;4.80;99.90;;;;;;5013127;28;20436;-67
2023/04/26 03:26:11;;;;;;;8.00;4.43;;;4.70;99.90;;;;;;5013572;28;20493;-67
2023/04/26 03:28:36;;;;;;;8.83;4.20;;;4.70;99.90;;;;;;5013372;28;20501;-67
2023/04/26 03:31:02;;;;;;;11.57;3.80;;;4.70;99.90;;;;;;5002004;28;20191;-67
2023/04/26 03:33:30;;;;;;;6.47;3.07;;;4.60;99.90;;;;;;4998807;28;20183;-67
2023/04/26 03:35:55;;;;;;;5.77;3.23;;;4.60;99.90;;;;;;5001645;28;20437;-67
2023/04/26 03:38:22;;;;;;;6.90;3.73;;;4.50;99.90;;;;;;5006777;28;20966;-67
2023/04/26 03:40:48;;;;;;;7.00;4.23;;;4.50;99.90;;;;;;4994527;28;20186;-67
2023/04/26 03:43:13;;;;;;;11.77;5.17;;;4.40;99.90;;;;;;5014074;28;20414;-67
2023/04/26 03:45:39;;;;;;;6.80;3.60;;;4.40;99.90;;;;;;5013659;28;20467;-67
2023/04/26 03:48:05;;;;;;;5.93;4.03;;;4.30;99.90;;;;;;5008530;28;20195;-67
2023/04/26 03:50:31;;;;;;;11.13;4.50;;;4.30;99.90;;;;;;4987894;28;20195;-67
2023/04/26 03:52:56;;;;;;;10.73;5.43;;;4.20;99.90;;;;;;5006355;28;20183;-67
2023/04/26 03:55:22;;;;;;;4.83;3.43;;;4.10;99.90;;;;;;5005396;28;20186;-67
2023/04/26 03:57:48;;;;;;;10.27;4.40;;;4.00;99.90;;;;;;4982545;28;20207;-67
2023/04/26 04:00:14;;;;;;;9.07;4.20;;;4.00;99.90;;;;;;5002384;28;20190;-67
2023/04/26 04:02:40;;;;;;;8.77;4.60;;;3.90;99.90;;;;;;5012603;28;20179;-67
2023/04/26 04:05:07;;;;;;;8.83;3.77;;;3.90;99.90;;;;;;5012672;28;20891;-64
2023/04/26 04:07:33;;;;;;;9.40;5.27;;;3.80;99.90;;;;;;4994615;28;20430;-64
2023/04/26 04:09:59;;;;;;;8.50;4.53;;;3.80;99.90;;;;;;4998783;28;20964;-65
2023/04/26 04:12:25;;;;;;;8.10;3.53;;;3.80;99.90;;;;;;5012729;28;20418;-64
2023/04/26 04:14:51;;;;;;;7.07;3.80;;;3.80;99.90;;;;;;5006660;28;20435;-65
2023/04/26 04:17:17;;;;;;;8.33;3.80;;;3.80;99.90;;;;;;4998033;28;20544;-67
2023/04/26 04:19:43;;;;;;;30.97;5.93;;;3.90;99.90;;;;;;5000943;28;20426;-67
2023/04/26 04:22:09;;;;;;;15.53;4.03;;;3.90;99.90;;;;;;5010851;28;20453;-67
2023/04/26 04:24:36;;;;;;;12.50;5.03;;;3.90;99.90;;;;;;5012205;28;20450;-67
2023/04/26 04:27:02;;;;;;;8.63;4.20;;;3.90;99.90;;;;;;4999892;28;20433;-67
2023/04/26 04:29:28;;;;;;;4.83;3.20;;;3.90;99.90;;;;;;5000897;28;20423;-67
2023/04/26 04:31:53;;;;;;;7.50;3.33;;;3.90;99.90;;;;;;4998013;28;20421;-67
2023/04/26 04:34:19;;;;;;;10.23;3.23;;;3.90;99.90;;;;;;5000610;28;20505;-67
2023/04/26 04:36:44;;;;;;;4.50;2.80;;;3.90;99.90;;;;;;5011175;28;20231;-67
2023/04/26 04:39:15;;;;;;;6.30;3.50;;;3.90;99.90;;;;;;5000410;28;20196;-67
2023/04/26 04:41:47;;;;;;;14.80;3.27;;;3.90;99.90;;;;;;4992722;28;20561;-67
2023/04/26 04:44:16;;;;;;;8.97;3.33;;;3.90;99.90;;;;;;5005367;28;20417;-67
2023/04/26 04:46:42;;;;;;;7.00;3.33;;;4.00;99.90;;;;;;5006210;28;20465;-67
2023/04/26 04:49:10;;;;;;;6.67;3.60;;;4.00;99.90;;;;;;5008538;28;20418;-67
2023/04/26 04:51:35;;;;;;;4.53;2.93;;;4.10;99.90;;;;;;5008899;28;20418;-67
2023/04/26 04:54:11;;;;;;;6.40;3.73;;;4.10;99.90;;;;;;5011681;28;20426;-67
2023/04/26 04:56:36;;;;;;;17.00;4.33;;;4.10;99.90;;;;;;5012161;28;20202;-67
2023/04/26 04:59:03;;;;;;;9.53;3.90;;;4.20;99.90;;;;;;5011894;28;20445;-67
2023/04/26 05:01:31;;;;;;;11.53;3.40;;;4.20;99.90;;;;;;5002615;28;20573;-67
2023/04/26 05:03:56;;;;;;;7.63;3.67;;;4.30;99.90;;;;;;5005051;28;20485;-67
2023/04/26 05:06:23;;;;;;;8.87;4.70;;;4.30;99.90;;;;;;5001795;28;20495;-67
2023/04/26 05:08:49;;;;;;;6.50;3.43;;;4.30;99.90;;;;;;4995586;28;20194;-67
2023/04/26 05:11:14;;;;;;;7.23;3.40;;;4.40;99.90;;;;;;4999225;28;20419;-67
2023/04/26 05:13:40;;;;;;;7.30;3.90;;;4.40;99.90;;;;;;5007050;28;20191;-67
2023/04/26 05:16:06;;;;;;;7.03;3.93;;;4.30;99.90;;;;;;5011370;28;20582;-67
2023/04/26 05:18:31;;;;;;;8.43;3.60;;;4.40;99.90;;;;;;4996028;28;20219;-67
2023/04/26 05:20:57;;;;;;;7.17;3.70;;;4.40;99.90;;;;;;5000970;28;20834;-67
2023/04/26 05:23:23;;;;;;;8.60;4.07;;;4.50;99.90;;;;;;4997722;28;20183;-67
2023/04/26 05:25:49;;;;;;;9.40;3.80;;;4.50;99.90;;;;;;4998567;28;20183;-67
2023/04/26 05:28:15;;;;;;;7.83;4.10;;;4.60;99.90;;;;;;4991151;28;20191;-67
2023/04/26 05:30:41;;;;;;;6.27;3.40;;;4.60;99.90;;;;;;4992248;28;20422;-67
2023/04/26 05:33:07;;;;;;;11.37;4.43;;;4.70;99.90;;;;;;4992099;28;20234;-67
2023/04/26 05:35:34;;;;;;;6.77;3.60;;;4.70;99.90;;;;;;4991585;28;20882;-67
2023/04/26 05:37:59;;;;;;;5.57;3.33;;;4.70;99.90;;;;;;5005590;28;20211;-67
2023/04/26 05:40:25;;;;;;;6.77;3.63;;;4.80;99.90;;;;;;4992447;28;20781;-67
2023/04/26 05:42:51;;;;;;;7.40;4.10;;;4.90;99.90;;;;;;4993048;28;20183;-67
2023/04/26 05:45:17;;;;;;;7.97;4.60;;;5.00;99.90;;;;;;5011644;28;20203;-67
2023/04/26 05:47:42;;;;;;;8.13;4.63;;;5.00;99.90;;;;;;5006728;28;20188;-67
2023/04/26 05:50:09;;;;;;;10.33;5.77;;;5.10;99.90;;;;;;5005392;28;20474;-67
2023/04/26 05:52:35;;;;;;;8.10;5.10;;;5.00;99.90;;;;;;5008342;28;20488;-67
2023/04/26 05:55:03;;;;;;;13.97;5.87;;;5.10;99.90;;;;;;5002128;28;20199;-66
2023/04/26 05:57:28;;;;;;;8.37;5.20;;;5.10;99.90;;;;;;4995204;28;20656;-67
2023/04/26 05:59:54;;;;;;;24.43;5.13;;;5.10;99.90;;;;;;4990862;28;20435;-67
2023/04/26 06:02:20;;;;;;;8.97;4.57;;;5.10;99.90;;;;;;5005640;28;20190;-67
2023/04/26 06:04:46;;;;;;;9.10;4.27;;;5.20;99.90;;;;;;4991422;28;20199;-67
2023/04/26 06:07:11;;;;;;;8.03;4.30;;;5.30;99.90;;;;;;5004848;28;20190;-67
2023/04/26 06:09:37;;;;;;;13.63;5.50;;;5.30;99.90;;;;;;5000197;28;20183;-67
2023/04/26 06:12:03;;;;;;;9.03;4.40;;;5.30;99.90;;;;;;5010602;28;20686;-66
2023/04/26 06:14:29;;;;;;;8.87;5.00;;;5.40;99.90;;;;;;5005298;28;20222;-66
2023/04/26 06:16:55;;;;;;;9.83;4.50;;;5.40;99.90;;;;;;5010820;28;20536;-67
2023/04/26 06:19:21;;;;;;;8.70;4.80;;;5.40;99.90;;;;;;5002225;28;20515;-67
2023/04/26 06:21:47;;;;;;;9.53;4.60;;;5.60;99.90;;;;;;4973531;28;20442;-67
2023/04/26 06:24:13;;;;;;;12.07;4.50;;;5.60;99.90;;;;;;4991285;28;20180;-67
2023/04/26 06:26:39;;;;;;;6.13;4.40;;;5.60;99.90;;;;;;5004604;28;20426;-65
2023/04/26 06:29:05;;;;;;;7.93;3.97;;;5.70;99.90;;;;;;4999523;28;20455;-65
2023/04/26 06:31:31;;;;;;;7.70;4.20;;;5.70;99.90;;;;;;5010334;28;20898;-65
2023/04/26 06:33:56;;;;;;;6.97;3.87;;;5.80;99.90;;;;;;5001928;28;20188;-64
2023/04/26 06:36:22;;;;;;;8.30;3.73;;;5.90;99.90;;;;;;4998401;28;20429;-65
2023/04/26 06:38:48;;;;;;;7.77;4.50;;;6.00;99.90;;;;;;4990736;28;20660;-65
2023/04/26 06:41:14;;;;;;;10.03;4.90;;;6.00;99.90;;;;;;4991207;28;20188;-65
2023/04/26 06:43:39;;;;;;;10.27;4.23;;;6.10;99.90;;;;;;4998005;28;20187;-65
2023/04/26 06:46:05;;;;;;;8.87;4.17;;;6.20;99.90;;;;;;5008973;28;20446;-65
2023/04/26 06:48:31;;;;;;;13.03;4.67;;;6.20;99.90;;;;;;4997548;28;20225;-65
2023/04/26 06:50:56;;;;;;;10.33;4.40;;;6.20;99.90;;;;;;5020656;28;20192;-66
2023/04/26 06:53:22;;;;;;;7.20;3.83;;;6.30;99.90;;;;;;5013758;28;20183;-66
2023/04/26 06:55:47;;;;;;;5.43;3.00;;;6.40;99.90;;;;;;5014273;28;20844;-66
2023/04/26 06:58:13;;;;;;;8.60;4.63;;;6.60;99.90;;;;;;5006018;28;20232;-66
2023/04/26 07:00:39;;;;;;;10.83;3.47;;;6.70;99.90;;;;;;4997532;28;20206;-66
2023/04/26 07:03:04;;;;;;;6.63;3.37;;;6.90;99.90;;;;;;4994115;28;20434;-65
2023/04/26 07:05:30;;;;;;;5.80;3.57;;;7.00;99.90;;;;;;4994431;28;20180;-65
2023/04/26 07:07:56;;;;;;;2.80;1.37;;;7.20;99.90;;;;;;4994905;28;20242;-65
2023/04/26 07:10:21;;;;;;;3.53;1.30;;;7.40;99.90;;;;;;4994296;28;20215;-65
2023/04/26 07:12:47;;;;;;;3.13;1.90;;;7.60;99.90;;;;;;4994868;28;20200;-65
2023/04/26 07:15:13;;;;;;;3.40;1.90;;;8.00;98.30;;;;;;5006590;28;20179;-65
2023/04/26 07:17:38;;;;;;;2.77;1.47;;;8.20;96.90;;;;;;5013791;28;20297;-65
2023/04/26 07:20:04;;;;;;;6.80;2.30;;;8.10;96.70;;;;;;5011437;28;20519;-65
2023/04/26 07:22:30;;;;;;;7.90;1.50;;;8.30;96.90;;;;;;5016314;28;20218;-65
2023/04/26 07:24:56;;;;;;;6.20;1.67;;;8.60;96.70;;;;;;5020397;28;20418;-65
2023/04/26 07:27:22;;;;;;;3.43;1.50;;;8.90;95.90;;;;;;5024133;28;20237;-65
2023/04/26 07:29:47;;;;;;;8.77;2.43;;;9.10;94.40;;;;;;5014545;28;20229;-65
2023/04/26 07:32:13;;;;;;;3.33;1.90;;;9.30;95.40;;;;;;5018363;28;20442;-66
2023/04/26 07:34:39;;;;;;;5.40;2.10;;;9.90;94.80;;;;;;5013133;28;20183;-66
2023/04/26 07:37:05;;;;;;;4.67;2.07;;;10.70;93.20;;;;;;5021116;28;20202;-66
2023/04/26 07:39:31;;;;;;;4.13;1.80;;;11.20;93.10;;;;;;5033383;28;20882;-66
2023/04/26 07:41:57;;;;;;;3.50;2.30;;;11.80;91.10;;;;;;5023967;28;20419;-66
2023/04/26 07:44:22;;;;;;;3.50;1.60;;;11.70;90.50;;;;;;5015350;28;20213;-66
2023/04/26 07:46:48;;;;;;;26.23;2.37;;;11.50;91.10;;;;;;5013386;28;20191;-66
2023/04/26 07:49:13;;;;;;;4.33;1.40;;;11.10;90.30;;;;;;5009409;28;20187;-66
2023/04/26 07:51:42;;;;;;;2.83;1.70;;;11.30;88.80;;;;;;5013193;28;20301;-66
2023/04/26 07:54:07;;;;;;;4.17;1.40;;;11.90;86.80;;;;;;5010889;28;20225;-66
2023/04/26 07:56:33;;;;;;;3.10;1.50;;;11.80;83.70;;;;;;5017186;28;20460;-66
2023/04/26 07:58:59;;;;;;;7.13;2.40;;;11.60;85.00;;;;;;5014606;28;20187;-66
2023/04/26 08:01:24;;;;;;;6.73;1.80;;;12.00;85.50;;;;;;5022028;28;20198;-67
2023/04/26 08:03:50;;;;;;;7.93;1.40;;;12.60;82.40;;;;;;5027157;28;20181;-67
2023/04/26 08:06:16;;;;;;;13.40;1.73;;;13.40;81.80;;;;;;5025178;28;20183;-66
2023/04/26 08:08:43;;;;;;;2.10;1.43;;;13.40;81.10;;;;;;5013068;28;20658;-67
2023/04/26 08:11:09;;;;;;;2.80;1.27;;;12.90;80.20;;;;;;5021119;28;20572;-67
2023/04/26 08:13:35;;;;;;;5.40;1.47;;;13.00;79.80;;;;;;5032560;28;20420;-67
2023/04/26 08:16:01;;;;;;;4.30;1.90;;;13.20;79.00;;;;;;5025095;28;20909;-67
2023/04/26 08:18:26;;;;;;;5.53;2.20;;;13.10;80.60;;;;;;5019656;28;20257;-67
2023/04/26 08:20:54;;;;;;;5.17;2.47;;;13.60;80.00;;;;;;5024572;28;20183;-67
2023/04/26 08:23:20;;;;;;;3.73;2.10;;;13.90;79.00;;;;;;5013826;28;20213;-67
2023/04/26 08:25:46;;;;;;;4.03;1.90;;;13.70;78.80;;;;;;5015041;28;20421;-67
2023/04/26 08:28:13;;;;;;;5.43;1.70;;;13.80;76.50;;;;;;5019070;28;20718;-67
2023/04/26 08:30:39;;;;;;;5.90;2.30;;;13.50;75.60;;;;;;5032628;28;20183;-67
2023/04/26 08:33:05;;;;;;;5.63;2.40;;;13.20;76.80;;;;;;5017682;28;20426;-67
2023/04/26 08:35:31;;;;;;;2.90;1.57;;;12.70;78.50;;;;;;5013436;28;20513;-67
2023/04/26 08:37:57;;;;;;;6.93;2.20;;;12.20;80.00;;;;;;5007663;28;20466;-67
2023/04/26 08:40:23;;;;;;;8.47;2.27;;;11.70;83.90;;;;;;5013181;28;20697;-67
2023/04/26 08:42:51;;;;;;;3.90;1.77;;;11.40;85.50;;;;;;4998845;28;20184;-66
2023/04/26 08:45:17;;;;;;;4.33;2.27;;;11.20;84.80;;;;;;5013795;28;20444;-67
2023/04/26 08:47:46;;;;;;;7.20;2.03;;;11.10;84.80;;;;;;5011225;28;20516;-67
2023/04/26 08:50:13;;;;;;;4.50;2.20;;;10.80;85.00;;;;;;5014003;28;20194;-66
2023/04/26 08:52:41;;;;;;;4.63;1.67;;;10.70;85.80;;;;;;5015201;28;21044;-66
2023/04/26 08:55:11;;;;;;;3.27;1.67;;;10.60;84.40;;;;;;5032089;28;20498;-66
2023/04/26 08:57:39;;;;;;;11.90;2.43;;;10.20;85.50;;;;;;5028159;28;20484;-66
2023/04/26 09:00:09;;;;;;;4.53;1.80;;;10.00;85.40;;;;;;5023051;28;20770;-66
2023/04/26 09:02:35;;;;;;;2.93;1.67;;;9.90;88.50;;;;;;5010463;28;20433;-66
2023/04/26 09:05:02;;;;;;;3.33;1.70;;;9.90;89.70;;;;;;5015944;28;20587;-66
2023/04/26 09:07:34;;;;;;;6.70;1.77;;;9.90;88.10;;;;;;5024436;28;20553;-66
2023/04/26 09:10:03;;;;;;;3.77;2.00;;;10.10;84.80;;;;;;5013206;28;20446;-66
2023/04/26 09:12:28;;;;;;;8.20;2.10;;;10.20;84.60;;;;;;5026145;28;20445;-66
2023/04/26 09:14:55;;;;;;;2.67;1.67;;;9.90;86.50;;;;;;5011507;28;20895;-66
2023/04/26 09:17:37;;;;;;;2.60;1.83;;;9.90;88.00;;;;;;5030631;28;20213;-66
2023/04/26 09:20:21;;;;;;;3.63;1.97;;;10.00;88.50;;;;;;5024843;28;20508;-66
2023/04/26 09:22:48;;;;;;;3.10;1.30;;;9.90;87.90;;;;;;5011069;28;20456;-67
2023/04/26 09:25:16;;;;;;;5.07;2.67;;;10.20;87.00;;;;;;5024001;28;20417;-66
2023/04/26 09:27:43;;;;;;;10.87;2.43;;;10.10;87.50;;;;;;5022370;28;20739;-66
2023/04/26 09:30:09;;;;;;;4.60;2.70;;;10.70;90.10;;;;;;5012750;28;21073;-66
2023/04/26 09:32:46;;;;;;;5.73;1.70;;;10.80;85.10;;;;;;5022330;28;20421;-66
2023/04/26 09:35:26;;;;;;;3.63;1.63;;;10.90;83.60;;;;;;5024500;28;20429;-67
2023/04/26 09:38:17;;;;;;;5.47;2.03;;;11.30;85.00;;;;;;5010830;28;20801;-67
2023/04/26 09:40:49;;;;;;;4.83;2.63;;;11.50;83.10;;;;;;5021661;28;20437;-66
2023/04/26 09:43:20;;;;;;;7.73;2.37;;;11.50;82.60;;;;;;5024049;28;20756;-66
2023/04/26 09:45:48;;;;;;;3.00;1.60;;;11.40;84.20;;;;;;5010481;28;20524;-66
2023/04/26 09:48:16;;;;;;;15.83;2.53;;;11.50;82.60;;;;;;5015797;28;20417;-66
2023/04/26 09:50:46;;;;;;;6.93;2.20;;;11.50;82.20;;;;;;5013427;28;20426;-66
2023/04/26 09:53:38;;;;;;;7.70;2.20;;;11.50;81.00;;;;;;5013620;28;20528;-66
2023/04/26 09:56:10;;;;;;;2.23;1.27;;;11.20;82.60;;;;;;5012329;28;20435;-66
2023/04/26 09:58:38;;;;;;;4.80;1.63;;;10.90;83.60;;;;;;5017938;28;20469;-66
2023/04/26 10:01:04;;;;;;;3.00;1.97;;;10.60;86.50;;;;;;5010777;28;20441;-66
2023/04/26 10:03:32;;;;;;;4.17;1.67;;;10.50;87.00;;;;;;5008941;28;20943;-67
2023/04/26 10:05:58;;;;;;;2.33;1.50;;;10.40;86.30;;;;;;4998744;28;20521;-67
2023/04/26 10:08:24;;;;;;;3.37;1.63;;;10.50;86.80;;;;;;5010330;28;20501;-66
2023/04/26 10:10:50;;;;;;;5.40;1.70;;;10.50;85.70;;;;;;5028965;28;20178;-66
2023/04/26 10:13:17;;;;;;;5.00;1.43;;;10.60;85.90;;;;;;5010181;28;20419;-67
2023/04/26 10:15:43;;;;;;;2.03;1.17;;;10.40;83.60;;;;;;5011003;28;20202;-67
2023/04/26 10:18:09;;;;;;;6.87;1.90;;;10.40;85.00;;;;;;5009250;28;20465;-66
2023/04/26 10:20:41;;;;;;;3.10;1.20;;;10.50;87.20;;;;;;5008864;28;20429;-66
2023/04/26 10:23:21;;;;;;;3.13;1.80;;;10.40;85.10;;;;;;5009688;28;20222;-66
2023/04/26 10:25:47;;;;;;;5.10;1.93;;;10.40;88.30;;;;;;5012263;28;20409;-66
2023/04/26 10:28:13;;;;;;;3.70;1.93;;;10.30;85.60;;;;;;5016180;28;20449;-66
2023/04/26 10:31:07;;;;;;;6.23;2.13;;;10.10;85.90;;;;;;5024870;28;20457;-66
2023/04/26 10:33:33;;;;;;;2.70;1.37;;;10.30;88.10;;;;;;5008590;28;20268;-66
2023/04/26 10:36:02;;;;;;;5.93;2.13;;;10.60;88.60;;;;;;5018623;28;20828;-66
2023/04/26 10:38:28;;;;;;;4.67;1.63;;;10.50;86.50;;;;;;5018280;28;20206;-66
2023/04/26 10:40:55;;;;;;;3.67;1.80;;;10.80;86.10;;;;;;5016593;28;20436;-67
2023/04/26 10:43:27;;;;;;;2.07;1.40;;;11.00;86.20;;;;;;5014633;28;20513;-66
2023/04/26 10:45:55;;;;;;;3.13;1.73;;;11.50;85.40;;;;;;5013380;28;20449;-66
2023/04/26 10:48:27;;;;;;;4.07;1.90;;;12.10;83.40;;;;;;5021069;28;20977;-66
2023/04/26 10:51:01;;;;;;;5.53;1.40;;;12.40;80.30;;;;;;5007838;28;20426;-67
2023/04/26 10:53:30;;;;;;;5.07;1.83;;;12.40;80.00;;;;;;5004069;28;20477;-66
2023/04/26 10:55:56;;;;;;;2.30;1.40;;;12.40;81.30;;;;;;5022625;28;20909;-66
2023/04/26 10:58:29;;;;;;;4.17;1.40;;;12.40;80.90;;;;;;5001606;28;20472;-66
2023/04/26 11:01:05;;;;;;;2.93;1.70;;;12.30;79.40;;;;;;5019529;28;20191;-67
2023/04/26 11:03:30;;;;;;;2.87;1.70;;;12.50;76.10;;;;;;5017191;28;20423;-67
2023/04/26 11:05:57;;;;;;;3.00;1.50;;;12.30;76.80;;;;;;5026871;28;20414;-66
2023/04/26 11:08:27;;;;;;;3.03;1.40;;;12.00;80.30;;;;;;5025129;28;20220;-66
2023/04/26 11:11:07;;;;;;;1.80;1.10;;;11.80;79.10;;;;;;5019062;28;20484;-67
2023/04/26 11:13:41;;;;;;;2.17;1.10;;;12.20;79.40;;;;;;5018859;28;20468;-67
2023/04/26 11:16:14;;;;;;;4.40;1.53;;;11.90;77.60;;;;;;5020054;28;20437;-67
2023/04/26 11:18:42;;;;;;;3.40;1.07;;;11.90;79.00;;;;;;5029399;28;20461;-67
2023/04/26 11:21:08;;;;;;;4.50;1.23;;;11.90;78.10;;;;;;5022562;28;20417;-67
2023/04/26 11:23:35;;;;;;;5.73;1.77;;;11.80;79.50;;;;;;5025408;28;20442;-67
2023/04/26 11:26:10;;;;;;;2.30;1.20;;;11.60;77.60;;;;;;5023932;28;20774;-67
2023/04/26 11:28:37;;;;;;;4.03;1.57;;;11.70;77.60;;;;;;5019740;28;20505;-67
2023/04/26 11:31:05;;;;;;;2.53;1.10;;;11.90;76.80;;;;;;5022676;28;20477;-67
2023/04/26 11:33:32;;;;;;;2.23;1.17;;;11.90;78.20;;;;;;5012678;28;20973;-67
2023/04/26 11:35:58;;;;;;;5.33;1.90;;;12.00;76.10;;;;;;5016637;28;20505;-66
2023/04/26 11:38:27;;;;;;;2.33;1.50;;;11.70;77.10;;;;;;5011894;28;20880;-66
2023/04/26 11:41:01;;;;;;;2.63;1.30;;;11.80;77.20;;;;;;5008329;28;20274;-66
2023/04/26 11:43:37;;;;;;;4.07;1.50;;;12.10;77.50;;;;;;5004925;28;20445;-66
2023/04/26 11:46:04;;;;;;;1.73;1.00;;;12.70;74.90;;;;;;5012834;28;20523;-66
2023/04/26 11:48:30;;;;;;;3.83;1.87;;;12.90;75.10;;;;;;5009207;28;20548;-66
2023/04/26 11:51:00;;;;;;;10.00;0.93;;;12.90;75.60;;;;;;5010036;28;21072;-67
2023/04/26 11:53:36;;;;;;;2.60;1.20;;;13.30;75.50;;;;;;5013166;28;20426;-67
2023/04/26 11:56:02;;;;;;;2.90;1.50;;;13.30;73.00;;;;;;5012026;28;20429;-67
2023/04/26 11:58:28;;;;;;;2.80;0.90;;;13.20;75.10;;;;;;4997727;28;20963;-67
2023/04/26 12:00:58;;;;;;;2.00;1.17;;;13.10;76.70;;;;;;5012315;28;20436;-66
2023/04/26 12:03:32;;;;;;;2.33;1.10;;;13.20;71.20;;;;;;5011808;28;20529;-67
2023/04/26 12:05:57;;;;;;;3.00;1.43;;;13.10;70.50;;;;;;5011849;28;20428;-67
2023/04/26 12:08:26;;;;;;;10.83;1.23;;;13.30;70.80;;;;;;5006932;28;20434;-67
2023/04/26 12:10:53;;;;;;;3.30;1.40;;;13.10;74.10;;;;;;5031450;28;20266;-66
2023/04/26 12:13:19;;;;;;;3.97;1.47;;;12.80;74.40;;;;;;5020309;28;20484;-67
2023/04/26 12:15:46;;;;;;;2.47;1.10;;;12.90;72.30;;;;;;5021951;28;20433;-67
2023/04/26 12:18:11;;;;;;;4.47;1.40;;;13.00;72.90;;;;;;5013170;28;20474;-67
2023/04/26 12:20:41;;;;;;;2.10;1.03;;;13.00;71.10;;;;;;5011638;28;20430;-67
2023/04/26 12:23:17;;;;;;;1.80;1.07;;;13.00;72.40;;;;;;5012765;28;20183;-67
2023/04/26 12:26:00;;;;;;;4.27;1.13;;;13.10;72.40;;;;;;5021083;28;20409;-67
2023/04/26 12:28:26;;;;;;;2.90;1.37;;;13.00;72.10;;;;;;5030288;28;20508;-67
2023/04/26 12:30:51;;;;;;;2.80;1.60;;;12.80;74.00;;;;;;5024416;28;20508;-67
2023/04/26 12:33:21;;;;;;;3.20;1.20;;;12.80;76.00;;;;;;5014590;28;20549;-67
2023/04/26 12:35:50;;;;;;;3.70;1.40;;;13.00;74.70;;;;;;5008951;28;20187;-67
2023/04/26 12:38:16;;;;;;;2.33;1.00;;;12.90;76.80;;;;;;5012601;28;20548;-67
2023/04/26 12:40:42;;;;;;;6.70;1.23;;;13.10;71.90;;;;;;5012212;28;20434;-67
2023/04/26 12:43:08;;;;;;;3.50;1.17;;;13.30;75.30;;;;;;5025573;28;20469;-67
2023/04/26 12:45:34;;;;;;;2.00;1.20;;;13.60;74.70;;;;;;5014265;28;20445;-67
2023/04/26 12:47:59;;;;;;;2.03;1.07;;;13.90;71.80;;;;;;5016917;28;20444;-67
2023/04/26 12:50:25;;;;;;;3.83;1.03;;;13.90;71.70;;;;;;5019755;28;20206;-67